Time,TemperatureF,DewpointF,PressureIn,WindDirection,WindDirectionDegrees,WindSpeedMPH,WindSpeedGustMPH,Humidity,HourlyPrecipIn,Conditions,Clouds,dailyrainin,SoftwareType,DateUTC
2013-12-04 00:00:00,16.9,16.9,19.02,WSW,247,3.1,3.6,100,0.00,,---,0.00,VWS V14.01,2013-12-04 05:00:00,
2013-12-04 00:05:00,16.9,16.9,19.02,WSW,249,3.6,4.0,100,0.00,,---,0.00,VWS V14.01,2013-12-04 05:05:00,
2013-12-04 00:10:00,17.1,17.1,19.02,WSW,249,3.6,4.5,100,0.00,,---,0.00,VWS V14.01,2013-12-04 05:10:00,
2013-12-04 00:15:00,16.9,16.9,19.02,WSW,247,2.2,4.0,100,0.00,,---,0.00,VWS V14.01,2013-12-04 05:15:00,
2013-12-04 00:20:00,16.7,16.7,19.02,WSW,247,4.0,4.0,100,0.00,,---,0.00,VWS V14.01,2013-12-04 05:20:00,
2013-12-04 00:25:00,16.9,16.9,19.02,WSW,247,1.8,4.0,100,0.00,,---,0.00,VWS V14.01,2013-12-04 05:25:00,
2013-12-04 00:30:00,17.2,17.2,19.02,WSW,249,2.7,2.7,100,0.00,,---,0.00,VWS V14.01,2013-12-04 05:30:00,
2013-12-04 00:35:00,17.4,17.4,19.02,WSW,249,2.2,3.1,100,0.00,,---,0.00,VWS V14.01,2013-12-04 05:35:00,
2013-12-04 00:40:00,17.4,17.4,19.02,WSW,242,1.3,3.6,100,0.00,,---,0.00,VWS V14.01,2013-12-04 05:40:00,
2013-12-04 00:50:00,17.6,17.6,19.02,WSW,238,5.8,5.8,100,0.00,,---,0.00,VWS V14.01,2013-12-04 05:50:00,
2013-12-04 00:55:00,18.0,18.0,19.02,SW,236,4.5,5.8,100,0.00,,---,0.00,VWS V14.01,2013-12-04 05:55:00,
2013-12-04 01:00:00,18.1,18.1,19.02,SW,236,3.6,4.9,100,0.00,,---,0.00,VWS V14.01,2013-12-04 06:00:00,
2013-12-04 01:05:00,18.7,18.7,19.02,SW,230,4.9,6.7,100,0.00,,---,0.00,VWS V14.01,2013-12-04 06:05:00,
2013-12-04 01:10:00,19.0,19.0,19.02,SW,225,4.5,5.4,100,0.00,,---,0.00,VWS V14.01,2013-12-04 06:10:00,
2013-12-04 01:15:00,19.0,19.0,19.02,SW,223,3.6,6.3,100,0.00,,---,0.00,VWS V14.01,2013-12-04 06:15:00,
2013-12-04 01:20:00,19.2,19.2,19.02,SW,223,3.6,4.9,100,0.00,,---,0.00,VWS V14.01,2013-12-04 06:20:00,
2013-12-04 01:30:00,19.2,19.2,19.02,SW,223,0.0,0.0,100,0.00,,---,0.00,VWS V14.01,2013-12-04 06:30:00,
2013-12-04 01:35:00,19.2,19.2,19.02,SW,223,0.0,0.4,100,0.00,,---,0.00,VWS V14.01,2013-12-04 06:35:00,
2013-12-04 01:40:00,19.0,19.0,19.02,SW,223,0.0,0.0,100,0.00,,---,0.00,VWS V14.01,2013-12-04 06:40:00,
2013-12-04 01:45:00,19.2,19.2,19.02,SW,223,0.0,0.0,100,0.00,,---,0.00,VWS V14.01,2013-12-04 06:45:00,
2013-12-04 01:50:00,19.4,19.4,19.02,SW,223,2.7,3.6,100,0.00,,---,0.00,VWS V14.01,2013-12-04 06:50:00,
2013-12-04 01:55:00,19.6,19.6,19.02,SW,223,2.7,4.0,100,0.00,,---,0.00,VWS V14.01,2013-12-04 06:55:00,
2013-12-04 02:00:00,19.4,19.4,19.02,SW,223,5.8,6.3,100,0.00,,---,0.00,VWS V14.01,2013-12-04 07:00:00,
2013-12-04 02:10:00,19.2,19.2,19.02,SSW,194,5.8,7.6,100,0.00,,---,0.00,VWS V14.01,2013-12-04 07:10:00,
2013-12-04 02:15:00,19.0,19.0,19.02,SSW,195,4.5,8.1,100,0.00,,---,0.00,VWS V14.01,2013-12-04 07:15:00,
2013-12-04 02:20:00,18.9,18.9,19.02,SSW,195,4.5,5.4,100,0.00,,---,0.00,VWS V14.01,2013-12-04 07:20:00,
2013-12-04 02:25:00,18.7,18.7,19.02,SSW,195,2.2,4.5,100,0.00,,---,0.00,VWS V14.01,2013-12-04 07:25:00,
2013-12-04 02:30:00,18.3,18.3,19.02,SSW,197,3.6,3.6,100,0.00,,---,0.00,VWS V14.01,2013-12-04 07:30:00,
2013-12-04 02:35:00,18.1,18.1,19.02,SSW,195,2.7,4.0,100,0.00,,---,0.00,VWS V14.01,2013-12-04 07:35:00,
2013-12-04 02:40:00,18.0,18.0,19.02,SSW,195,0.0,3.1,100,0.00,,---,0.00,VWS V14.01,2013-12-04 07:40:00,
2013-12-04 02:50:00,17.6,17.6,19.02,SSW,195,0.0,3.1,100,0.00,,---,0.00,VWS V14.01,2013-12-04 07:50:00,
2013-12-04 02:55:00,17.4,17.4,19.02,SSW,194,2.7,5.4,100,0.00,,---,0.00,VWS V14.01,2013-12-04 07:55:00,
2013-12-04 03:00:00,17.6,17.6,19.02,South,185,2.2,5.8,100,0.00,,---,0.00,VWS V14.01,2013-12-04 08:00:00,
2013-12-04 03:05:00,17.6,17.6,19.02,South,185,4.9,5.8,100,0.00,,---,0.00,VWS V14.01,2013-12-04 08:05:00,
2013-12-04 03:10:00,17.8,17.8,19.02,SSW,201,0.0,5.8,100,0.00,,---,0.00,VWS V14.01,2013-12-04 08:10:00,
2013-12-04 03:15:00,17.8,17.8,19.02,South,184,4.0,4.9,100,0.00,,---,0.00,VWS V14.01,2013-12-04 08:15:00,
2013-12-04 03:20:00,18.0,18.0,19.02,South,185,4.9,5.4,100,0.00,,---,0.00,VWS V14.01,2013-12-04 08:20:00,
2013-12-04 03:25:00,18.7,18.7,19.02,South,177,3.6,7.6,100,0.00,,---,0.00,VWS V14.01,2013-12-04 08:25:00,
2013-12-04 03:35:00,19.4,19.4,19.02,South,170,0.9,3.1,100,0.00,,---,0.00,VWS V14.01,2013-12-04 08:35:00,
2013-12-04 03:40:00,19.8,19.8,19.02,South,169,0.0,3.1,100,0.00,,---,0.00,VWS V14.01,2013-12-04 08:40:00,
2013-12-04 03:45:00,19.8,19.8,19.02,South,169,2.7,3.6,100,0.00,,---,0.00,VWS V14.01,2013-12-04 08:45:00,
2013-12-04 03:50:00,20.1,20.1,19.02,South,180,2.7,5.4,100,0.00,,---,0.00,VWS V14.01,2013-12-04 08:50:00,
2013-12-04 03:55:00,20.7,20.7,19.02,South,180,3.6,4.5,100,0.00,,---,0.00,VWS V14.01,2013-12-04 08:55:00,
2013-12-04 04:00:00,20.8,20.8,19.02,South,180,2.2,5.4,100,0.00,,---,0.00,VWS V14.01,2013-12-04 09:00:00,
2013-12-04 04:05:00,20.8,20.8,19.02,South,180,2.7,3.6,100,0.00,,---,0.00,VWS V14.01,2013-12-04 09:05:00,
2013-12-04 04:15:00,20.5,20.5,19.02,South,180,0.0,1.8,100,0.00,,---,0.00,VWS V14.01,2013-12-04 09:15:00,
2013-12-04 04:20:00,20.3,20.3,19.02,South,181,2.7,3.6,100,0.00,,---,0.00,VWS V14.01,2013-12-04 09:20:00,
2013-12-04 04:25:00,20.1,20.1,19.02,South,180,2.2,2.7,100,0.00,,---,0.00,VWS V14.01,2013-12-04 09:25:00,
2013-12-04 04:30:00,20.3,20.3,19.02,South,180,3.1,4.5,100,0.00,,---,0.00,VWS V14.01,2013-12-04 09:30:00,
2013-12-04 04:35:00,21.2,21.2,19.02,South,180,4.0,6.7,100,0.00,,---,0.00,VWS V14.01,2013-12-04 09:35:00,
2013-12-04 04:40:00,21.6,21.6,19.02,South,180,3.6,4.9,100,0.00,,---,0.00,VWS V14.01,2013-12-04 09:40:00,
2013-12-04 04:45:00,21.9,21.9,19.02,South,178,4.0,4.9,100,0.00,,---,0.00,VWS V14.01,2013-12-04 09:45:00,
2013-12-04 04:50:00,22.3,22.3,19.02,South,181,5.4,5.8,100,0.00,,---,0.00,VWS V14.01,2013-12-04 09:50:00,
2013-12-04 05:00:00,22.6,22.6,19.02,South,188,4.5,7.6,100,0.00,,---,0.00,VWS V14.01,2013-12-04 10:00:00,
2013-12-04 05:05:00,22.6,22.6,19.02,South,190,1.8,5.8,100,0.00,,---,0.00,VWS V14.01,2013-12-04 10:05:00,
2013-12-04 05:10:00,22.6,22.6,19.02,South,190,4.5,6.7,100,0.00,,---,0.00,VWS V14.01,2013-12-04 10:10:00,
2013-12-04 05:15:00,22.8,22.8,19.02,South,191,4.9,7.2,100,0.00,,---,0.00,VWS V14.01,2013-12-04 10:15:00,
2013-12-04 05:20:00,23.2,23.2,19.02,South,190,5.8,6.7,100,0.00,,---,0.00,VWS V14.01,2013-12-04 10:20:00,
2013-12-04 05:25:00,23.4,23.4,19.02,South,190,4.5,7.2,100,0.00,,---,0.00,VWS V14.01,2013-12-04 10:25:00,
2013-12-04 05:30:00,23.9,23.9,19.02,South,178,6.7,11.6,100,0.00,,---,0.00,VWS V14.01,2013-12-04 10:30:00,
2013-12-04 05:40:00,24.3,24.3,19.02,South,176,4.5,8.9,100,0.00,,---,0.00,VWS V14.01,2013-12-04 10:40:00,
2013-12-04 05:45:00,24.3,24.3,19.02,South,183,6.7,8.1,100,0.00,,---,0.00,VWS V14.01,2013-12-04 10:45:00,
2013-12-04 05:50:00,24.4,24.4,19.02,South,176,7.2,8.5,100,0.00,,---,0.00,VWS V14.01,2013-12-04 10:50:00,
2013-12-04 05:55:00,24.4,24.4,19.02,South,191,5.8,9.8,100,0.00,,---,0.00,VWS V14.01,2013-12-04 10:55:00,
2013-12-04 06:00:00,24.4,24.4,19.02,SSW,197,6.7,8.1,100,0.00,,---,0.00,VWS V14.01,2013-12-04 11:00:00,
2013-12-04 06:05:00,24.4,24.4,19.02,SSW,200,5.8,9.4,100,0.00,,---,0.00,VWS V14.01,2013-12-04 11:05:00,
2013-12-04 06:15:00,24.4,24.4,19.02,SSW,200,8.1,8.9,100,0.00,,---,0.00,VWS V14.01,2013-12-04 11:15:00,
2013-12-04 06:20:00,24.4,24.4,19.02,SSW,208,8.1,9.4,100,0.00,,---,0.00,VWS V14.01,2013-12-04 11:20:00,
2013-12-04 06:25:00,24.4,24.4,19.02,SSW,208,9.4,9.4,100,0.00,,---,0.00,VWS V14.01,2013-12-04 11:25:00,
2013-12-04 06:30:00,24.4,24.4,19.02,SSW,208,7.2,9.4,100,0.00,,---,0.00,VWS V14.01,2013-12-04 11:30:00,
2013-12-04 06:35:00,24.4,24.4,19.02,SSW,200,6.7,8.9,100,0.00,,---,0.00,VWS V14.01,2013-12-04 11:35:00,
2013-12-04 06:40:00,24.4,24.4,19.02,SSW,194,7.6,8.5,100,0.00,,---,0.00,VWS V14.01,2013-12-04 11:40:00,
2013-12-04 06:45:00,24.4,24.4,19.02,SSW,194,6.3,9.4,100,0.00,,---,0.00,VWS V14.01,2013-12-04 11:45:00,
2013-12-04 06:50:00,24.4,24.4,19.02,South,185,5.4,8.5,100,0.00,,---,0.00,VWS V14.01,2013-12-04 11:50:00,
2013-12-04 07:00:00,24.4,24.4,19.02,SSW,197,6.7,8.9,100,0.00,,---,0.00,VWS V14.01,2013-12-04 12:00:00,
2013-12-04 07:05:00,24.4,24.4,19.02,SSW,198,5.4,8.5,100,0.00,,---,0.00,VWS V14.01,2013-12-04 12:05:00,
2013-12-04 07:10:00,24.4,24.4,19.02,SSW,202,6.7,7.6,100,0.00,,---,0.00,VWS V14.01,2013-12-04 12:10:00,
2013-12-04 07:15:00,24.6,24.6,19.02,SSW,201,5.8,7.6,100,0.00,,---,0.00,VWS V14.01,2013-12-04 12:15:00,
2013-12-04 07:20:00,24.6,24.6,19.02,SSW,204,6.3,6.7,100,0.00,,---,0.00,VWS V14.01,2013-12-04 12:20:00,
2013-12-04 07:25:00,24.4,24.4,19.02,SSW,207,6.3,8.1,100,0.00,,---,0.00,VWS V14.01,2013-12-04 12:25:00,
2013-12-04 07:35:00,24.8,24.8,19.02,SSW,212,6.7,8.5,100,0.00,,---,0.00,VWS V14.01,2013-12-04 12:35:00,
2013-12-04 07:40:00,25.0,25.0,19.02,SSW,212,5.4,8.1,100,0.00,,---,0.00,VWS V14.01,2013-12-04 12:40:00,
2013-12-04 07:45:00,25.0,25.0,19.02,SSW,211,5.8,8.5,100,0.00,,---,0.00,VWS V14.01,2013-12-04 12:45:00,
2013-12-04 07:50:00,25.0,25.0,19.02,SSW,202,6.3,8.9,100,0.00,,---,0.00,VWS V14.01,2013-12-04 12:50:00,
2013-12-04 07:55:00,25.2,25.2,19.02,SSW,209,8.9,8.9,100,0.00,,---,0.00,VWS V14.01,2013-12-04 12:55:00,
2013-12-04 08:00:00,25.3,25.3,19.02,SSW,205,8.5,9.4,100,0.00,,---,0.00,VWS V14.01,2013-12-04 13:00:00,
2013-12-04 08:10:00,25.3,25.3,19.02,SSW,212,8.1,10.3,100,0.00,,---,0.00,VWS V14.01,2013-12-04 13:10:00,
2013-12-04 08:15:00,25.3,25.3,19.02,SSW,212,8.1,10.3,100,0.00,,---,0.00,VWS V14.01,2013-12-04 13:15:00,
2013-12-04 08:20:00,25.3,25.3,19.02,SSW,208,7.6,10.7,100,0.00,,---,0.00,VWS V14.01,2013-12-04 13:20:00,
2013-12-04 08:25:00,25.3,25.3,19.02,SSW,211,7.2,9.4,100,0.00,,---,0.00,VWS V14.01,2013-12-04 13:25:00,
2013-12-04 08:30:00,25.5,25.5,19.02,SW,218,7.6,9.8,100,0.00,,---,0.00,VWS V14.01,2013-12-04 13:30:00,
2013-12-04 08:40:00,25.7,25.7,19.02,SSW,211,6.3,8.5,100,0.00,,---,0.00,VWS V14.01,2013-12-04 13:40:00,
2013-12-04 08:45:00,25.7,25.7,19.02,SSW,207,6.3,8.5,100,0.00,,---,0.00,VWS V14.01,2013-12-04 13:45:00,
2013-12-04 08:50:00,25.7,25.7,19.02,SSW,192,4.0,8.1,100,0.00,,---,0.00,VWS V14.01,2013-12-04 13:50:00,
2013-12-04 08:55:00,25.7,25.7,19.02,South,188,5.8,6.3,100,0.00,,---,0.00,VWS V14.01,2013-12-04 13:55:00,
2013-12-04 09:00:00,25.7,25.7,19.02,South,188,3.6,6.7,100,0.00,,---,0.00,VWS V14.01,2013-12-04 14:00:00,
2013-12-04 09:05:00,25.9,25.9,19.02,SSW,198,5.8,8.5,100,0.00,,---,0.00,VWS V14.01,2013-12-04 14:05:00,
2013-12-04 09:10:00,25.9,25.9,19.02,South,185,7.6,9.4,100,0.00,,---,0.00,VWS V14.01,2013-12-04 14:10:00,
2013-12-04 09:20:00,26.2,26.2,19.02,South,173,2.7,5.8,100,0.00,,---,0.00,VWS V14.01,2013-12-04 14:20:00,
2013-12-04 09:25:00,26.4,26.4,19.02,SSW,195,6.7,8.1,100,0.00,,---,0.00,VWS V14.01,2013-12-04 14:25:00,
2013-12-04 09:30:00,26.4,26.4,19.02,SSW,192,7.2,8.5,100,0.00,,---,0.00,VWS V14.01,2013-12-04 14:30:00,
2013-12-04 09:35:00,26.6,26.6,19.02,SSW,201,5.4,8.9,100,0.00,,---,0.00,VWS V14.01,2013-12-04 14:35:00,
2013-12-04 09:40:00,26.8,26.8,19.02,SSW,200,6.7,8.1,100,0.00,,---,0.00,VWS V14.01,2013-12-04 14:40:00,
2013-12-04 09:45:00,27.0,27.0,19.02,SSW,200,5.8,7.6,100,0.00,,---,0.00,VWS V14.01,2013-12-04 14:45:00,
2013-12-04 09:55:00,27.1,27.1,19.02,South,181,4.9,8.5,100,0.00,,---,0.00,VWS V14.01,2013-12-04 14:55:00,
2013-12-04 10:00:00,27.3,27.3,19.02,SSW,198,6.3,11.2,100,0.00,,---,0.00,VWS V14.01,2013-12-04 15:00:00,
2013-12-04 10:05:00,27.7,27.7,19.02,South,190,5.8,7.6,100,0.00,,---,0.00,VWS V14.01,2013-12-04 15:05:00,
2013-12-04 10:10:00,28.2,28.2,19.02,South,178,4.5,7.2,100,0.00,,---,0.00,VWS V14.01,2013-12-04 15:10:00,
2013-12-04 10:15:00,28.8,28.8,19.02,South,190,5.4,7.2,100,0.00,,---,0.00,VWS V14.01,2013-12-04 15:15:00,
2013-12-04 10:20:00,28.9,28.9,19.02,SSW,197,6.7,8.5,100,0.00,,---,0.00,VWS V14.01,2013-12-04 15:20:00,
2013-12-04 10:25:00,28.8,28.0,19.02,South,190,6.3,8.1,97,0.00,,---,0.00,VWS V14.01,2013-12-04 15:25:00,
2013-12-04 10:30:00,28.9,27.9,19.02,South,180,5.8,8.5,96,0.00,,---,0.00,VWS V14.01,2013-12-04 15:30:00,
2013-12-04 10:35:00,28.9,27.4,19.02,South,188,9.8,9.8,94,0.00,,---,0.00,VWS V14.01,2013-12-04 15:35:00,
2013-12-04 10:40:00,28.8,27.2,19.02,South,191,10.7,11.2,94,0.00,,---,0.00,VWS V14.01,2013-12-04 15:40:00,
2013-12-04 10:45:00,28.8,27.2,19.02,South,188,9.4,10.7,94,0.00,,---,0.00,VWS V14.01,2013-12-04 15:45:00,
2013-12-04 10:50:00,29.3,27.5,19.02,South,191,8.9,11.2,93,0.00,,---,0.00,VWS V14.01,2013-12-04 15:50:00,
2013-12-04 11:00:00,31.3,27.9,19.02,South,187,6.7,10.7,87,0.00,,---,0.00,VWS V14.01,2013-12-04 16:00:00,
2013-12-04 11:05:00,31.8,28.1,19.02,South,176,6.7,8.5,86,0.00,,---,0.00,VWS V14.01,2013-12-04 16:05:00,
2013-12-04 11:10:00,32.2,27.9,19.02,South,171,6.7,9.8,84,0.00,,---,0.00,VWS V14.01,2013-12-04 16:10:00,
2013-12-04 11:15:00,32.9,28.3,19.02,South,181,7.6,9.4,83,0.00,,---,0.00,VWS V14.01,2013-12-04 16:15:00,
2013-12-04 11:20:00,33.6,28.7,19.02,South,174,6.7,9.8,82,0.00,,---,0.00,VWS V14.01,2013-12-04 16:20:00,
2013-12-04 11:30:00,34.2,29.0,19.02,South,174,6.7,9.8,81,0.00,,---,0.00,VWS V14.01,2013-12-04 16:30:00,
2013-12-04 11:35:00,34.5,29.3,19.02,SSE,153,8.1,10.7,81,0.00,,---,0.00,VWS V14.01,2013-12-04 16:35:00,
2013-12-04 11:40:00,34.7,29.2,19.02,SSE,160,6.3,9.4,80,0.00,,---,0.00,VWS V14.01,2013-12-04 16:40:00,
2013-12-04 11:45:00,36.0,30.1,19.02,SSE,157,7.6,7.6,79,0.00,,---,0.00,VWS V14.01,2013-12-04 16:45:00,
2013-12-04 11:50:00,36.9,30.0,19.02,SSE,157,8.9,10.7,76,0.00,,---,0.00,VWS V14.01,2013-12-04 16:50:00,
2013-12-04 12:00:00,36.3,29.8,19.02,SSE,159,6.7,8.5,77,0.00,,---,0.00,VWS V14.01,2013-12-04 17:00:00,
2013-12-04 12:05:00,36.1,30.0,19.02,South,169,4.5,9.4,78,0.00,,---,0.00,VWS V14.01,2013-12-04 17:05:00,
2013-12-04 12:10:00,37.8,30.6,19.02,SSE,150,7.2,8.9,75,0.00,,---,0.00,VWS V14.01,2013-12-04 17:10:00,
2013-12-04 12:15:00,38.1,30.2,19.02,South,185,8.9,8.9,73,0.00,,---,0.00,VWS V14.01,2013-12-04 17:15:00,
2013-12-04 12:20:00,37.9,30.1,19.02,South,191,5.8,9.8,73,0.00,,---,0.00,VWS V14.01,2013-12-04 17:20:00,
2013-12-04 12:25:00,38.3,30.1,19.02,South,171,6.7,11.6,72,0.00,,---,0.00,VWS V14.01,2013-12-04 17:25:00,
2013-12-04 12:35:00,39.6,31.0,19.02,South,187,7.6,8.9,71,0.00,,---,0.00,VWS V14.01,2013-12-04 17:35:00,
2013-12-04 12:40:00,39.9,31.3,19.02,South,180,6.7,9.4,71,0.00,,---,0.00,VWS V14.01,2013-12-04 17:40:00,
2013-12-04 12:45:00,39.9,30.9,19.02,South,178,5.8,11.2,70,0.00,,---,0.00,VWS V14.01,2013-12-04 17:45:00,
2013-12-04 12:50:00,39.9,30.9,19.02,South,180,7.2,10.7,70,0.00,,---,0.00,VWS V14.01,2013-12-04 17:50:00,
2013-12-04 13:00:00,39.7,30.8,19.02,South,185,6.3,10.3,70,0.00,,---,0.00,VWS V14.01,2013-12-04 18:00:00,
2013-12-04 13:05:00,39.9,30.9,19.02,South,181,6.7,8.1,70,0.00,,---,0.00,VWS V14.01,2013-12-04 18:05:00,
2013-12-04 13:10:00,40.1,31.1,19.02,South,170,7.2,10.3,70,0.00,,---,0.00,VWS V14.01,2013-12-04 18:10:00,
2013-12-04 13:15:00,40.3,31.3,19.02,South,180,8.5,10.3,70,0.00,,---,0.00,VWS V14.01,2013-12-04 18:15:00,
2013-12-04 13:25:00,40.6,31.6,19.02,SSW,201,10.3,11.6,70,0.00,,---,0.00,VWS V14.01,2013-12-04 18:25:00,
2013-12-04 13:30:00,40.3,31.3,19.02,South,190,8.9,12.5,70,0.00,,---,0.00,VWS V14.01,2013-12-04 18:30:00,
2013-12-04 13:35:00,39.9,30.9,19.02,South,170,11.6,12.5,70,0.00,,---,0.00,VWS V14.01,2013-12-04 18:35:00,
2013-12-04 13:40:00,39.7,30.8,19.02,SSW,208,9.4,14.8,70,0.00,,---,0.00,VWS V14.01,2013-12-04 18:40:00,
2013-12-04 13:45:00,39.4,30.8,19.02,SSE,149,16.6,17.4,71,0.00,,---,0.00,VWS V14.01,2013-12-04 18:45:00,
2013-12-04 13:50:00,39.6,30.6,19.02,SSE,159,11.2,16.6,70,0.00,,---,0.00,VWS V14.01,2013-12-04 18:50:00,
2013-12-04 14:00:00,39.0,30.4,19.02,SSE,159,8.5,13.4,71,0.00,,---,0.00,VWS V14.01,2013-12-04 19:00:00,
2013-12-04 14:05:00,39.2,30.6,19.02,SSE,167,7.2,11.6,71,0.00,,---,0.00,VWS V14.01,2013-12-04 19:05:00,
2013-12-04 14:10:00,39.2,30.6,19.02,SSE,157,7.6,13.0,71,0.00,,---,0.00,VWS V14.01,2013-12-04 19:10:00,
2013-12-04 14:15:00,39.2,30.6,19.02,South,190,10.7,11.6,71,0.00,,---,0.00,VWS V14.01,2013-12-04 19:15:00,
2013-12-04 14:25:00,39.6,31.0,19.02,South,177,5.8,13.4,71,0.00,,---,0.00,VWS V14.01,2013-12-04 19:25:00,
2013-12-04 14:30:00,39.4,30.8,19.02,South,169,6.7,10.7,71,0.00,,---,0.00,VWS V14.01,2013-12-04 19:30:00,
2013-12-04 14:35:00,39.7,31.1,19.02,South,169,5.8,9.4,71,0.00,,---,0.00,VWS V14.01,2013-12-04 19:35:00,
2013-12-04 14:40:00,39.7,31.1,19.02,South,171,6.3,9.8,71,0.00,,---,0.00,VWS V14.01,2013-12-04 19:40:00,
2013-12-04 14:50:00,39.6,31.0,19.02,South,169,4.5,10.3,71,0.00,,---,0.00,VWS V14.01,2013-12-04 19:50:00,
2013-12-04 14:55:00,38.7,30.4,19.02,SSW,197,9.4,10.3,72,0.00,,---,0.00,VWS V14.01,2013-12-04 19:55:00,
2013-12-04 15:00:00,38.5,30.2,19.02,South,178,9.8,12.5,72,0.00,,---,0.00,VWS V14.01,2013-12-04 20:00:00,
2013-12-04 15:05:00,38.1,30.6,19.02,South,187,9.4,14.8,74,0.00,,---,0.00,VWS V14.01,2013-12-04 20:05:00,
2013-12-04 15:15:00,37.8,30.6,19.02,South,169,4.5,11.6,75,0.00,,---,0.00,VWS V14.01,2013-12-04 20:15:00,
2013-12-04 15:20:00,37.4,30.5,19.02,South,171,4.0,6.7,76,0.00,,---,0.00,VWS V14.01,2013-12-04 20:20:00,
2013-12-04 15:25:00,37.0,30.5,19.02,SSW,194,5.4,8.5,77,0.00,,---,0.00,VWS V14.01,2013-12-04 20:25:00,
2013-12-04 15:35:00,36.5,30.6,19.02,South,171,1.8,8.1,79,0.00,,---,0.00,VWS V14.01,2013-12-04 20:35:00,
2013-12-04 15:40:00,36.3,30.8,19.02,SSE,167,1.8,4.5,80,0.00,,---,0.00,VWS V14.01,2013-12-04 20:40:00,
2013-12-04 15:45:00,36.1,30.6,19.02,South,169,1.8,4.0,80,0.00,,---,0.00,VWS V14.01,2013-12-04 20:45:00,
2013-12-04 15:50:00,36.1,30.6,19.02,South,169,2.2,3.1,80,0.00,,---,0.00,VWS V14.01,2013-12-04 20:50:00,
2013-12-04 16:00:00,36.1,30.6,19.02,SSE,166,2.2,4.9,80,0.00,,---,0.00,VWS V14.01,2013-12-04 21:00:00,
2013-12-04 16:05:00,35.8,30.2,19.02,SSE,166,3.6,3.6,80,0.00,,---,0.00,VWS V14.01,2013-12-04 21:05:00,
2013-12-04 16:10:00,35.4,29.9,19.02,SSE,166,3.1,3.6,80,0.00,,---,0.00,VWS V14.01,2013-12-04 21:10:00,
2013-12-04 16:20:00,34.3,29.1,23.51,SSE,166,4.0,4.0,81,0.00,,---,0.00,VWS V14.01,2013-12-04 21:20:00,
2013-12-04 16:25:00,34.0,29.1,23.51,South,183,3.6,6.3,82,0.00,,---,0.00,VWS V14.01,2013-12-04 21:25:00,
2013-12-04 16:30:00,33.4,28.5,31.12,South,183,2.2,3.6,82,0.00,,---,0.00,VWS V14.01,2013-12-04 21:30:00,
2013-12-04 16:40:00,33.1,28.8,31.12,South,183,5.4,5.4,84,0.00,,---,0.00,VWS V14.01,2013-12-04 21:40:00,
2013-12-04 16:45:00,33.4,29.7,24.83,South,184,5.4,6.7,86,0.00,,---,0.00,VWS V14.01,2013-12-04 21:45:00,
2013-12-04 16:50:00,33.4,29.1,24.83,SSW,198,5.8,8.1,84,0.00,,---,0.00,VWS V14.01,2013-12-04 21:50:00,
2013-12-04 16:55:00,32.9,29.2,24.83,SSW,207,8.5,8.5,86,0.00,,---,0.00,VWS V14.01,2013-12-04 21:55:00,
2013-12-04 17:05:00,33.4,30.3,25.10,SSW,194,6.7,9.8,88,0.00,,---,0.00,VWS V14.01,2013-12-04 22:05:00,
2013-12-04 17:10:00,33.4,30.5,25.10,South,177,2.7,7.6,89,0.00,,---,0.00,VWS V14.01,2013-12-04 22:10:00,
2013-12-04 17:15:00,33.6,30.7,26.02,South,178,3.6,5.4,89,0.00,,---,0.00,VWS V14.01,2013-12-04 22:15:00,
2013-12-04 17:25:00,34.0,30.5,26.02,SSW,207,6.3,7.2,87,0.00,,---,0.00,VWS V14.01,2013-12-04 22:25:00,
2013-12-04 17:30:00,33.8,30.6,29.18,South,170,4.0,6.7,88,0.00,,---,0.00,VWS V14.01,2013-12-04 22:30:00,
2013-12-04 17:35:00,34.2,31.3,29.18,South,170,1.8,5.4,89,0.00,,---,0.00,VWS V14.01,2013-12-04 22:35:00,
2013-12-04 17:45:00,33.8,30.6,29.35,South,169,0.0,0.0,88,0.00,,---,0.00,VWS V14.01,2013-12-04 22:45:00,
2013-12-04 17:50:00,33.3,30.1,29.35,South,169,0.0,0.0,88,0.00,,---,0.00,VWS V14.01,2013-12-04 22:50:00,
2013-12-04 17:55:00,32.7,29.6,29.35,South,170,2.7,2.7,88,0.00,,---,0.00,VWS V14.01,2013-12-04 22:55:00,
2013-12-04 18:05:00,32.7,30.4,27.40,SSW,197,8.5,9.8,91,0.00,,---,0.00,VWS V14.01,2013-12-04 23:05:00,
2013-12-04 18:10:00,33.4,31.1,27.40,SSW,201,8.5,11.2,91,0.00,,---,0.00,VWS V14.01,2013-12-04 23:10:00,
2013-12-04 18:15:00,33.4,30.8,26.25,South,191,5.4,9.4,90,0.00,,---,0.00,VWS V14.01,2013-12-04 23:15:00,
2013-12-04 18:25:00,33.3,30.6,26.25,SSW,197,8.1,9.4,90,0.00,,---,0.00,VWS V14.01,2013-12-04 23:25:00,
2013-12-04 18:30:00,33.4,30.8,24.72,SSW,197,6.3,11.6,90,0.00,,---,0.00,VWS V14.01,2013-12-04 23:30:00,
2013-12-04 18:35:00,33.3,30.6,24.72,South,190,6.7,8.5,90,0.00,,---,0.00,VWS V14.01,2013-12-04 23:35:00,
2013-12-04 18:45:00,33.6,31.3,27.40,SSW,194,8.9,8.9,91,0.00,,---,0.00,VWS V14.01,2013-12-04 23:45:00,
2013-12-04 18:50:00,34.0,31.6,27.40,SSW,202,11.2,11.2,91,0.00,,---,0.00,VWS V14.01,2013-12-04 23:50:00,
2013-12-04 18:55:00,34.9,32.2,27.40,SSW,205,8.1,12.1,90,0.00,,---,0.00,VWS V14.01,2013-12-04 23:55:00,
2013-12-04 19:05:00,34.7,31.8,23.71,SSW,202,7.6,10.3,89,0.00,,---,0.00,VWS V14.01,2013-12-05 00:05:00,
2013-12-04 19:10:00,34.9,31.7,23.71,SSW,201,8.1,8.9,88,0.00,,---,0.00,VWS V14.01,2013-12-05 00:10:00,
2013-12-04 19:15:00,35.2,31.8,26.87,South,183,4.9,8.1,87,0.00,,---,0.00,VWS V14.01,2013-12-05 00:15:00,
2013-12-04 19:25:00,34.5,31.1,26.87,South,187,6.7,9.4,87,0.00,,---,0.00,VWS V14.01,2013-12-05 00:25:00,
2013-12-04 19:30:00,34.3,30.9,22.65,SSW,208,6.3,8.5,87,0.00,,---,0.00,VWS V14.01,2013-12-05 00:30:00,
2013-12-04 19:35:00,34.2,31.0,22.65,SSE,156,5.4,7.6,88,0.00,,---,0.00,VWS V14.01,2013-12-05 00:35:00,
2013-12-04 19:45:00,34.0,31.4,27.82,SSW,198,7.2,9.4,90,0.00,,---,0.00,VWS V14.01,2013-12-05 00:45:00,
2013-12-04 19:50:00,34.5,31.9,27.82,South,178,3.6,7.6,90,0.00,,---,0.00,VWS V14.01,2013-12-05 00:50:00,
2013-12-04 19:55:00,35.1,32.2,27.82,South,191,6.3,7.6,89,0.00,,---,0.00,VWS V14.01,2013-12-05 00:55:00,
2013-12-04 20:05:00,36.1,33.2,25.66,SSW,195,9.8,10.7,89,0.00,,---,0.00,VWS V14.01,2013-12-05 01:05:00,
2013-12-04 20:10:00,35.6,31.8,25.66,South,171,4.0,9.8,86,0.00,,---,0.00,VWS V14.01,2013-12-05 01:10:00,
2013-12-04 20:15:00,35.4,32.2,20.52,South,176,2.2,6.3,88,0.00,,---,0.00,VWS V14.01,2013-12-05 01:15:00,
2013-12-04 20:25:00,34.7,31.5,20.52,South,190,7.2,7.6,88,0.00,,---,0.00,VWS V14.01,2013-12-05 01:25:00,
2013-12-04 20:30:00,35.2,32.3,23.24,South,174,8.1,11.6,89,0.00,,---,0.00,VWS V14.01,2013-12-05 01:30:00,
2013-12-04 20:40:00,35.6,31.8,23.24,South,191,8.5,13.0,86,0.00,,---,0.00,VWS V14.01,2013-12-05 01:40:00,
2013-12-04 20:45:00,35.6,32.4,24.19,SW,219,6.7,14.3,88,0.00,,---,0.00,VWS V14.01,2013-12-05 01:45:00,
2013-12-04 20:50:00,35.8,32.3,24.19,SSW,197,7.2,11.2,87,0.00,,---,0.00,VWS V14.01,2013-12-05 01:50:00,
2013-12-04 21:00:00,36.0,32.5,28.05,SSW,201,6.7,11.6,87,0.00,,---,0.00,VWS V14.01,2013-12-05 02:00:00,
2013-12-04 21:05:00,36.0,32.5,28.05,SSW,201,15.2,16.6,87,0.00,,---,0.00,VWS V14.01,2013-12-05 02:05:00,
2013-12-04 21:10:00,36.1,32.1,28.05,SSW,208,10.7,15.7,85,0.00,,---,0.00,VWS V14.01,2013-12-05 02:10:00,
2013-12-04 21:15:00,36.1,32.1,22.65,South,188,13.0,17.0,85,0.00,,---,0.00,VWS V14.01,2013-12-05 02:15:00,
2013-12-04 21:25:00,36.3,32.0,22.65,SSW,200,9.4,15.7,84,0.00,,---,0.00,VWS V14.01,2013-12-05 02:25:00,
2013-12-04 21:30:00,35.8,31.7,30.83,South,171,10.3,14.3,85,0.00,,---,0.00,VWS V14.01,2013-12-05 02:30:00,
2013-12-04 21:35:00,36.3,32.0,30.83,SSE,167,5.8,12.5,84,0.00,,---,0.00,VWS V14.01,2013-12-05 02:35:00,
2013-12-04 21:45:00,35.4,31.4,24.60,SSE,160,6.3,8.9,85,0.00,,---,0.00,VWS V14.01,2013-12-05 02:45:00,
2013-12-04 21:50:00,35.1,31.3,24.60,SSE,149,4.0,8.5,86,0.00,,---,0.00,VWS V14.01,2013-12-05 02:50:00,
2013-12-04 22:00:00,35.1,32.4,28.76,SSW,200,9.8,13.0,90,0.00,,---,0.00,VWS V14.01,2013-12-05 03:00:00,
2013-12-04 22:05:00,35.8,32.0,28.76,South,180,6.3,11.6,86,0.00,,---,0.00,VWS V14.01,2013-12-05 03:05:00,
2013-12-04 22:10:00,36.0,32.2,28.76,SSW,207,12.5,13.9,86,0.00,,---,0.00,VWS V14.01,2013-12-05 03:10:00,
2013-12-04 22:15:00,36.3,32.2,28.53,South,170,5.8,13.9,85,0.00,,---,0.00,VWS V14.01,2013-12-05 03:15:00,
2013-12-04 22:20:00,35.6,31.8,28.53,SSE,163,7.2,11.6,86,0.00,,---,0.00,VWS V14.01,2013-12-05 03:20:00,
2013-12-04 22:25:00,36.0,32.2,28.53,SSE,157,7.6,14.3,86,0.00,,---,0.00,VWS V14.01,2013-12-05 03:25:00,
2013-12-04 22:30:00,35.6,31.5,30.71,South,181,5.8,12.1,85,0.00,,---,0.00,VWS V14.01,2013-12-05 03:30:00,
2013-12-04 22:40:00,35.8,32.3,30.71,SSW,192,7.2,13.0,87,0.00,,---,0.00,VWS V14.01,2013-12-05 03:40:00,
2013-12-04 22:45:00,35.8,32.9,31.18,SE,130,7.6,12.5,89,0.00,,---,0.00,VWS V14.01,2013-12-05 03:45:00,
2013-12-04 22:50:00,35.8,33.1,31.18,South,181,8.5,17.0,90,0.00,,---,0.00,VWS V14.01,2013-12-05 03:50:00,
2013-12-04 23:00:00,36.0,33.9,24.36,SSW,204,13.0,17.0,92,0.00,,---,0.00,VWS V14.01,2013-12-05 04:00:00,
2013-12-04 23:05:00,36.3,34.0,24.36,SW,219,8.5,13.4,91,0.00,,---,0.00,VWS V14.01,2013-12-05 04:05:00,
2013-12-04 23:10:00,36.1,33.8,24.36,SSW,209,10.7,11.6,91,0.00,,---,0.00,VWS V14.01,2013-12-05 04:10:00,
2013-12-04 23:20:00,36.5,34.7,28.41,South,184,5.8,16.6,93,0.00,,---,0.00,VWS V14.01,2013-12-05 04:20:00,
2013-12-04 23:25:00,36.1,34.3,28.41,South,188,8.1,13.9,93,0.00,,---,0.00,VWS V14.01,2013-12-05 04:25:00,
2013-12-04 23:30:00,36.3,34.5,32.31,SSW,197,9.4,13.0,93,0.00,,---,0.00,VWS V14.01,2013-12-05 04:30:00,
2013-12-04 23:40:00,36.7,34.8,32.31,SSE,150,8.1,16.6,93,0.00,,---,0.00,VWS V14.01,2013-12-05 04:40:00,
2013-12-04 23:45:00,36.5,34.7,32.31,SSE,153,9.4,18.8,93,0.00,,---,0.00,VWS V14.01,2013-12-05 04:45:00,
2013-12-04 23:50:00,36.7,34.6,32.31,SSE,166,4.9,12.5,92,0.00,,---,0.00,VWS V14.01,2013-12-05 04:50:00,